Time;durP1;ratioP1;P1;durP2;ratioP2;P2;SDS_P1;SDS_P2;PMS_P1;PMS_P2;Temp;Humidity;BMP_temperature;BMP_pressure;BME280_temperature;BME280_humidity;BME280_pressure;Samples;Min_cycle;Max_cycle;Signal;HPM_P1;HPM_P2
2022/09/29 00:00:13;;;;;;;;;;;;;;;28.16;38.12;99819.69;5064369;28;1426;-55
2022/09/29 00:02:39;;;;;;;;;;;;;;;28.16;38.11;99815.09;5075685;28;1147;-54
2022/09/29 00:05:04;;;;;;;;;;;;;;;28.14;37.98;99811.81;5070355;28;1119;-52
2022/09/29 00:07:31;;;;;;;;;;;;;;;28.16;38.16;99796.19;5068539;28;1120;-54
2022/09/29 00:09:56;;;;;;;;;;;;;;;28.15;38.27;99797.22;5057238;28;1174;-54
2022/09/29 00:12:21;;;;;;;;;;;;;;;28.16;38.65;99798.88;5065766;28;1886;-55
2022/09/29 00:14:46;;;;;;;;;;;;;;;28.20;37.92;99788.47;5076230;28;1194;-53
2022/09/29 00:17:13;;;;;;;;;;;;;;;28.22;38.15;99789.09;5068016;28;1096;-56
2022/09/29 00:19:38;;;;;;;;;;;;;;;28.21;38.00;99785.56;5055995;28;1186;-51
2022/09/29 00:22:03;;;;;;;;;;;;;;;28.15;38.46;99796.38;5070122;28;1251;-50
2022/09/29 00:24:28;;;;;;;;;;;;;;;28.25;38.14;99796.78;5063853;28;1844;-53
2022/09/29 00:26:54;;;;;;;;;;;;;;;28.20;38.49;99791.19;5072219;28;1205;-54
2022/09/29 00:29:19;;;;;;;;;;;;;;;28.20;38.30;99797.41;5055735;28;1147;-51
2022/09/29 00:31:44;;;;;;;;;;;;;;;28.19;38.24;99795.78;5069328;28;1963;-51
2022/09/29 00:34:10;;;;;;;;;;;;;;;28.19;38.28;99803.03;5055763;28;1056;-52
2022/09/29 00:36:35;;;;;;;;;;;;;;;28.07;38.56;99801.00;5046332;28;1172;-53
2022/09/29 00:39:00;;;;;;;;;;;;;;;28.13;38.30;99803.91;5079764;28;1221;-53
2022/09/29 00:41:30;;;;;;;;;;;;;;;28.13;38.16;99802.00;5080162;28;1119;-56
2022/09/29 00:44:13;;;;;;;;;;;;;;;28.03;38.35;99796.25;5061669;28;1111;-57
2022/09/29 00:46:46;;;;;;;;;;;;;;;28.07;38.22;99802.88;5059366;28;1170;-50
2022/09/29 00:49:18;;;;;;;;;;;;;;;28.06;38.43;99791.22;5078534;28;1195;-53
2022/09/29 00:52:04;;;;;;;;;;;;;;;28.06;38.14;99793.13;5072009;28;1972;-54
2022/09/29 00:54:31;;;;;;;;;;;;;;;28.19;37.77;99795.78;5037561;28;2511;-53
2022/09/29 00:56:56;;;;;;;;;;;;;;;28.10;37.73;99808.69;5061960;28;1187;-49
2022/09/29 00:59:27;;;;;;;;;;;;;;;28.09;38.00;99807.00;5079453;28;1139;-57
2022/09/29 01:01:52;;;;;;;;;;;;;;;28.04;38.23;99814.13;5061021;28;981;-50
2022/09/29 01:04:18;;;;;;;;;;;;;;;28.02;38.35;99808.91;5048096;28;1195;-49
2022/09/29 01:06:45;;;;;;;;;;;;;;;28.13;38.03;99814.72;5041397;28;1132;-51
2022/09/29 01:09:12;;;;;;;;;;;;;;;28.09;37.89;99809.72;5071776;28;1131;-49
2022/09/29 01:11:37;;;;;;;;;;;;;;;28.08;37.95;99818.03;5061032;28;1953;-50
2022/09/29 01:14:03;;;;;;;;;;;;;;;28.10;37.60;99818.66;5059256;28;889;-52
2022/09/29 01:16:32;;;;;;;;;;;;;;;27.92;38.03;99817.47;5061049;28;1136;-54
2022/09/29 01:19:01;;;;;;;;;;;;;;;28.05;38.13;99822.00;5070786;28;1170;-48
2022/09/29 01:21:32;;;;;;;;;;;;;;;28.25;37.55;99818.41;5041319;28;1235;-51
2022/09/29 01:24:01;;;;;;;;;;;;;;;28.07;38.45;99816.38;5059578;28;2463;-53
2022/09/29 01:26:45;;;;;;;;;;;;;;;28.12;38.63;99813.88;5059283;28;1107;-53
2022/09/29 01:29:13;;;;;;;;;;;;;;;27.87;39.48;99817.28;5067428;28;1190;-54
2022/09/29 01:31:57;;;;;;;;;;;;;;;27.80;39.31;99813.75;5077688;28;1965;-53
2022/09/29 01:34:25;;;;;;;;;;;;;;;27.81;38.49;99824.34;5050941;28;1171;-53
2022/09/29 01:36:54;;;;;;;;;;;;;;;27.73;38.21;99822.69;5078427;28;1157;-51
2022/09/29 01:39:25;;;;;;;;;;;;;;;27.89;37.84;99826.00;5078318;28;1208;-52
2022/09/29 01:41:52;;;;;;;;;;;;;;;27.92;38.03;99832.84;5060695;28;1186;-52
2022/09/29 01:44:35;;;;;;;;;;;;;;;27.90;37.87;99833.06;5048110;28;1207;-52
2022/09/29 01:47:06;;;;;;;;;;;;;;;27.92;37.54;99827.44;5046970;28;1115;-55
2022/09/29 01:49:32;;;;;;;;;;;;;;;27.92;37.42;99822.03;5077768;28;947;-49
2022/09/29 01:52:11;;;;;;;;;;;;;;;27.93;37.48;99827.22;5068570;28;1963;-54
2022/09/29 01:54:40;;;;;;;;;;;;;;;27.97;37.29;99822.25;5049207;28;2346;-53
2022/09/29 01:57:13;;;;;;;;;;;;;;;28.21;36.77;99828.81;5040502;28;1155;-51
2022/09/29 01:59:43;;;;;;;;;;;;;;;28.20;37.30;99832.56;5040837;28;1128;-51
2022/09/29 02:02:10;;;;;;;;;;;;;;;28.32;37.08;99832.75;5056210;28;905;-52
2022/09/29 02:04:56;;;;;;;;;;;;;;;28.31;37.28;99830.25;5076589;28;1221;-55
2022/09/29 02:07:23;;;;;;;;;;;;;;;28.20;37.24;99837.97;5057970;28;1659;-55
2022/09/29 02:09:50;;;;;;;;;;;;;;;28.32;36.96;99832.75;5058193;28;1124;-53
2022/09/29 02:12:16;;;;;;;;;;;;;;;28.33;36.90;99829.03;5058028;28;1949;-55
2022/09/29 02:14:42;;;;;;;;;;;;;;;28.32;36.84;99824.63;5076234;28;964;-54
2022/09/29 02:17:18;;;;;;;;;;;;;;;28.26;37.03;99819.25;5058201;28;1128;-55
2022/09/29 02:19:44;;;;;;;;;;;;;;;28.21;37.21;99822.59;5057625;28;1210;-52
2022/09/29 02:22:09;;;;;;;;;;;;;;;28.05;37.26;99821.16;5040674;28;1112;-55
2022/09/29 02:24:35;;;;;;;;;;;;;;;28.13;37.15;99817.44;5057568;28;1856;-49
2022/09/29 02:27:00;;;;;;;;;;;;;;;28.15;37.29;99820.72;5062707;28;1132;-51
2022/09/29 02:29:26;;;;;;;;;;;;;;;28.16;37.06;99814.28;5068043;28;1143;-52
2022/09/29 02:31:51;;;;;;;;;;;;;;;28.21;36.72;99815.28;5071856;28;1910;-57
2022/09/29 02:34:17;;;;;;;;;;;;;;;28.37;37.11;99818.63;5039846;28;1065;-51
2022/09/29 02:36:49;;;;;;;;;;;;;;;28.39;36.83;99815.69;5041642;28;1109;-53
2022/09/29 02:39:20;;;;;;;;;;;;;;;28.42;36.73;99817.97;5060141;28;1167;-55
2022/09/29 02:41:48;;;;;;;;;;;;;;;28.40;36.33;99818.19;5059726;28;1143;-51
2022/09/29 02:44:16;;;;;;;;;;;;;;;28.41;36.56;99809.00;5057773;28;1206;-57
2022/09/29 02:46:53;;;;;;;;;;;;;;;28.14;36.68;99811.81;5058080;28;1206;-50
2022/09/29 02:49:23;;;;;;;;;;;;;;;28.22;37.73;99808.88;5063350;28;1163;-49
2022/09/29 02:51:52;;;;;;;;;;;;;;;28.12;37.41;99813.88;5068432;28;1894;-53
2022/09/29 02:54:17;;;;;;;;;;;;;;;28.26;36.84;99809.25;5040868;28;1860;-54
2022/09/29 02:56:48;;;;;;;;;;;;;;;28.47;36.30;99810.03;5077645;28;1146;-55
2022/09/29 02:59:32;;;;;;;;;;;;;;;28.49;36.08;99816.06;5076874;28;1099;-59
2022/09/29 03:01:57;;;;;;;;;;;;;;;28.33;36.72;99817.38;5066567;28;881;-53
2022/09/29 03:04:25;;;;;;;;;;;;;;;28.41;36.83;99819.03;5076707;28;1279;-51
2022/09/29 03:06:51;;;;;;;;;;;;;;;28.47;36.98;99821.69;5064397;28;1100;-59
2022/09/29 03:09:16;;;;;;;;;;;;;;;28.39;36.45;99816.53;5077344;28;1202;-55
2022/09/29 03:11:41;;;;;;;;;;;;;;;28.06;37.98;99823.66;5077429;28;1902;-60
2022/09/29 03:14:07;;;;;;;;;;;;;;;27.92;38.30;99812.06;5076113;28;962;-56
2022/09/29 03:16:32;;;;;;;;;;;;;;;27.87;38.40;99812.72;5074243;28;1190;-56
2022/09/29 03:18:58;;;;;;;;;;;;;;;27.74;38.51;99812.72;5065473;28;1151;-57
2022/09/29 03:21:23;;;;;;;;;;;;;;;27.73;38.41;99819.16;5076817;28;1131;-58
2022/09/29 03:23:48;;;;;;;;;;;;;;;27.74;38.37;99818.94;5073081;28;2324;-57
2022/09/29 03:26:13;;;;;;;;;;;;;;;27.85;38.65;99822.03;5067410;28;1151;-53
2022/09/29 03:28:39;;;;;;;;;;;;;;;27.92;38.45;99819.34;5076997;28;1233;-57
2022/09/29 03:31:05;;;;;;;;;;;;;;;27.87;38.51;99830.78;5076984;28;1967;-58
2022/09/29 03:33:31;;;;;;;;;;;;;;;28.03;38.50;99828.69;5060464;28;1130;-56
2022/09/29 03:35:56;;;;;;;;;;;;;;;27.97;38.99;99824.94;5056877;28;1132;-55
2022/09/29 03:38:21;;;;;;;;;;;;;;;27.71;39.63;99832.06;5059325;28;1100;-57
2022/09/29 03:40:46;;;;;;;;;;;;;;;26.61;41.61;99829.38;5070453;28;1147;-55
2022/09/29 03:43:12;;;;;;;;;;;;;;;26.16;43.06;99817.94;5056523;28;1120;-54
2022/09/29 03:45:37;;;;;;;;;;;;;;;26.48;42.54;99828.28;5056911;28;1115;-58
2022/09/29 03:48:02;;;;;;;;;;;;;;;26.68;41.90;99832.91;5056859;28;1192;-53
2022/09/29 03:50:28;;;;;;;;;;;;;;;26.47;42.38;99820.38;5071882;28;1898;-52
2022/09/29 03:52:53;;;;;;;;;;;;;;;26.29;43.39;99825.25;5076141;28;1209;-57
2022/09/29 03:55:18;;;;;;;;;;;;;;;26.10;42.56;99739.72;5076232;28;2251;-59
2022/09/29 03:57:44;;;;;;;;;;;;;;;26.23;43.76;99820.66;5076026;28;1142;-61
2022/09/29 04:00:10;;;;;;;;;;;;;;;26.60;43.02;99811.50;5076671;28;1095;-50
2022/09/29 04:02:35;;;;;;;;;;;;;;;26.85;42.67;99816.34;5076215;28;1126;-50
2022/09/29 04:05:00;;;;;;;;;;;;;;;26.75;43.03;99816.75;5076255;28;1360;-52
2022/09/29 04:07:26;;;;;;;;;;;;;;;26.64;42.90;99816.28;5075865;28;1174;-55
2022/09/29 04:09:51;;;;;;;;;;;;;;;26.69;42.75;99820.25;5061790;28;1235;-52
2022/09/29 04:12:16;;;;;;;;;;;;;;;26.56;43.46;99818.34;5075816;28;1953;-55
2022/09/29 04:14:41;;;;;;;;;;;;;;;26.68;43.26;99821.28;5075859;28;1135;-52
2022/09/29 04:17:07;;;;;;;;;;;;;;;26.66;43.11;99826.88;5076532;28;1111;-56
2022/09/29 04:19:32;;;;;;;;;;;;;;;26.59;43.08;99828.72;5076379;28;1186;-57
2022/09/29 04:21:59;;;;;;;;;;;;;;;26.65;43.72;99833.31;5036310;28;1214;-58
2022/09/29 04:24:24;;;;;;;;;;;;;;;26.65;43.61;99831.47;5028444;28;1952;-57
2022/09/29 04:26:49;;;;;;;;;;;;;;;26.64;44.04;99828.97;5035171;28;885;-56
2022/09/29 04:29:14;;;;;;;;;;;;;;;26.61;44.28;99826.69;5035521;28;1127;-53
2022/09/29 04:31:40;;;;;;;;;;;;;;;26.57;44.66;99820.00;5036247;28;1969;-58
2022/09/29 04:34:05;;;;;;;;;;;;;;;26.55;44.98;99820.22;5035730;28;1111;-58
2022/09/29 04:36:30;;;;;;;;;;;;;;;26.62;45.04;99817.53;5034272;28;1192;-56
2022/09/29 04:38:55;;;;;;;;;;;;;;;26.59;45.08;99817.94;5035600;28;883;-59
2022/09/29 04:41:21;;;;;;;;;;;;;;;26.59;44.71;99823.34;5035481;28;1456;-53
2022/09/29 04:43:46;;;;;;;;;;;;;;;26.65;44.62;99828.75;5036293;28;1205;-54
2022/09/29 04:46:11;;;;;;;;;;;;;;;26.68;44.25;99819.41;5035820;28;1139;-56
2022/09/29 04:48:37;;;;;;;;;;;;;;;26.65;44.83;99826.06;5034522;28;1178;-49
2022/09/29 04:51:02;;;;;;;;;;;;;;;26.65;44.59;99827.91;5022687;28;1934;-52
2022/09/29 04:53:27;;;;;;;;;;;;;;;26.65;44.30;99836.00;5016114;28;1167;-54
2022/09/29 04:55:53;;;;;;;;;;;;;;;26.68;44.00;99840.16;5017753;28;1152;-57
2022/09/29 04:58:18;;;;;;;;;;;;;;;26.55;44.74;99846.34;5029168;28;1194;-53
2022/09/29 05:00:44;;;;;;;;;;;;;;;26.44;45.25;99842.38;5016202;28;1190;-49
2022/09/29 05:03:09;;;;;;;;;;;;;;;26.49;45.23;99840.72;5027705;28;1450;-51
2022/09/29 05:05:34;;;;;;;;;;;;;;;26.58;45.01;99848.63;5035654;28;1151;-50
2022/09/29 05:08:03;;;;;;;;;;;;;;;26.55;45.07;99846.34;5035428;28;1142;-51
2022/09/29 05:10:28;;;;;;;;;;;;;;;26.52;45.23;99848.44;5035548;28;1959;-54
2022/09/29 05:12:53;;;;;;;;;;;;;;;26.58;45.01;99848.63;5031362;28;1162;-51
2022/09/29 05:15:18;;;;;;;;;;;;;;;26.54;45.23;99853.63;5028281;28;912;-52
2022/09/29 05:17:44;;;;;;;;;;;;;;;26.52;45.52;99852.97;5035145;28;1182;-47
2022/09/29 05:20:09;;;;;;;;;;;;;;;26.63;45.72;99856.94;5044983;28;1179;-48
2022/09/29 05:22:35;;;;;;;;;;;;;;;26.61;45.46;99861.75;5075320;28;1231;-51
2022/09/29 05:25:00;;;;;;;;;;;;;;;26.61;45.42;99861.75;5078238;28;1182;-48
2022/09/29 05:27:25;;;;;;;;;;;;;;;26.53;45.81;99862.72;5078396;28;869;-44
2022/09/29 05:29:50;;;;;;;;;;;;;;;26.86;44.40;99869.31;5079010;28;1155;-43
2022/09/29 05:32:16;;;;;;;;;;;;;;;27.18;42.65;99863.34;5078836;28;1917;-41
2022/09/29 05:34:41;;;;;;;;;;;;;;;27.23;42.17;99872.53;5078616;28;1512;-43
2022/09/29 05:37:06;;;;;;;;;;;;;;;27.34;41.44;99876.47;5078958;28;1150;-43
2022/09/29 05:39:33;;;;;;;;;;;;;;;27.42;41.12;99885.41;5065374;28;1154;-43
2022/09/29 05:41:59;;;;;;;;;;;;;;;27.46;40.78;99886.69;5078205;28;1136;-42
2022/09/29 05:44:24;;;;;;;;;;;;;;;27.51;40.68;99887.72;5079049;28;1190;-43
2022/09/29 05:46:49;;;;;;;;;;;;;;;27.48;40.79;99885.44;5078970;28;1166;-42
2022/09/29 05:49:17;;;;;;;;;;;;;;;27.55;40.63;99874.63;5078394;28;1228;-44
2022/09/29 05:51:42;;;;;;;;;;;;;;;27.56;41.22;99870.88;5078371;28;1967;-43
2022/09/29 05:54:07;;;;;;;;;;;;;;;27.55;40.68;99869.22;5078614;28;1147;-42
2022/09/29 05:56:32;;;;;;;;;;;;;;;27.96;41.38;99866.53;5078331;28;1087;-43
2022/09/29 05:59:00;;;;;;;;;;;;;;;28.01;41.33;99868.59;5079039;28;1134;-42
2022/09/29 06:01:25;;;;;;;;;;;;;;;27.67;40.35;99869.44;5078566;28;1241;-45
2022/09/29 06:03:54;;;;;;;;;;;;;;;27.68;41.32;99867.53;5074009;28;957;-51
2022/09/29 06:06:20;;;;;;;;;;;;;;;27.75;40.81;99871.13;5077366;28;1225;-48
2022/09/29 06:08:46;;;;;;;;;;;;;;;27.81;40.22;99866.75;5078169;28;1238;-46
2022/09/29 06:11:15;;;;;;;;;;;;;;;27.90;40.82;99861.94;5077299;28;1984;-50
2022/09/29 06:13:41;;;;;;;;;;;;;;;28.02;39.75;99864.84;5078442;28;1135;-50
2022/09/29 06:16:07;;;;;;;;;;;;;;;28.04;39.64;99858.22;5078185;28;956;-49
2022/09/29 06:18:32;;;;;;;;;;;;;;;28.10;40.16;99861.91;5077886;28;1198;-47
2022/09/29 06:21:04;;;;;;;;;;;;;;;28.09;39.32;99865.69;5078088;28;1252;-46
2022/09/29 06:23:30;;;;;;;;;;;;;;;28.12;40.32;99865.25;5064449;28;1096;-46
2022/09/29 06:25:56;;;;;;;;;;;;;;;28.17;39.92;99878.97;5077961;28;1254;-47
2022/09/29 06:28:21;;;;;;;;;;;;;;;28.10;40.14;99868.16;5070032;28;1015;-43
2022/09/29 06:30:47;;;;;;;;;;;;;;;28.12;39.72;99873.38;5077400;28;1914;-50
2022/09/29 06:33:12;;;;;;;;;;;;;;;28.17;39.62;99870.84;5077878;28;1198;-52
2022/09/29 06:38:21;;;;;;;;;;;;;;;28.18;39.86;99877.06;5078208;28;961;-48
2022/09/29 06:40:46;;;;;;;;;;;;;;;28.18;39.58;99875.22;5071030;28;937;-48
2022/09/29 06:43:12;;;;;;;;;;;;;;;28.23;39.57;99875.41;5078290;28;1169;-43
2022/09/29 06:45:37;;;;;;;;;;;;;;;28.34;39.69;99879.34;5078010;28;1130;-50
2022/09/29 06:48:02;;;;;;;;;;;;;;;28.40;39.63;99876.84;5078047;28;1464;-49
2022/09/29 06:50:28;;;;;;;;;;;;;;;28.38;39.88;99887.88;5077129;28;1923;-43
2022/09/29 06:52:53;;;;;;;;;;;;;;;28.17;39.65;99880.84;5076571;28;985;-51
2022/09/29 06:55:19;;;;;;;;;;;;;;;28.31;39.70;99884.34;5077157;28;1198;-49
2022/09/29 06:57:44;;;;;;;;;;;;;;;28.44;38.95;99888.91;5072863;28;1016;-51
2022/09/29 07:00:10;;;;;;;;;;;;;;;28.65;38.45;99892.38;5077625;28;1209;-50
2022/09/29 07:02:35;;;;;;;;;;;;;;;28.56;38.47;99889.91;5076705;28;1225;-48
2022/09/29 07:05:00;;;;;;;;;;;;;;;28.68;38.40;99883.81;5076411;28;1053;-57
2022/09/29 07:07:26;;;;;;;;;;;;;;;28.64;38.55;99880.72;5077550;28;1235;-49
2022/09/29 07:09:51;;;;;;;;;;;;;;;28.56;38.42;99883.69;5077614;28;1134;-54
2022/09/29 07:12:16;;;;;;;;;;;;;;;28.58;38.85;99890.53;5076303;28;1955;-52
2022/09/29 07:14:42;;;;;;;;;;;;;;;28.74;38.22;99891.09;5076533;28;1182;-50
2022/09/29 07:17:08;;;;;;;;;;;;;;;28.62;38.54;99890.94;5072832;28;1025;-55
2022/09/29 07:19:33;;;;;;;;;;;;;;;28.73;38.16;99886.72;5076619;28;1093;-48
2022/09/29 07:21:59;;;;;;;;;;;;;;;28.64;38.44;99890.72;5076693;28;1195;-47
2022/09/29 07:24:25;;;;;;;;;;;;;;;28.89;38.72;99888.13;5076609;28;1297;-45
2022/09/29 07:26:50;;;;;;;;;;;;;;;29.02;37.81;99886.41;5072790;28;1123;-54
2022/09/29 07:29:15;;;;;;;;;;;;;;;28.46;37.56;99794.88;5076465;28;1016;-48
2022/09/29 07:31:41;;;;;;;;;;;;;;;28.98;37.67;99890.59;5076565;28;1942;-46
2022/09/29 07:34:06;;;;;;;;;;;;;;;28.99;37.72;99892.25;5076479;28;1135;-42
2022/09/29 07:36:32;;;;;;;;;;;;;;;29.07;38.18;99892.84;5076827;28;1127;-45
2022/09/29 07:38:57;;;;;;;;;;;;;;;29.17;38.44;99896.94;5076893;28;1138;-46
2022/09/29 07:41:23;;;;;;;;;;;;;;;29.05;37.07;99886.78;5075569;28;1303;-46
2022/09/29 07:43:48;;;;;;;;;;;;;;;28.60;37.14;99890.31;5076757;28;1270;-50
2022/09/29 07:46:13;;;;;;;;;;;;;;;28.97;38.13;99892.47;5075582;28;1150;-43
2022/09/29 07:48:38;;;;;;;;;;;;;;;29.43;37.18;99887.78;5076404;28;1229;-42
2022/09/29 07:51:05;;;;;;;;;;;;;;;29.58;36.59;99895.59;5075068;28;1902;-41
2022/09/29 07:53:30;;;;;;;;;;;;;;;29.10;37.70;99896.97;5064911;28;1146;-47
2022/09/29 07:56:00;;;;;;;;;;;;;;;28.87;38.00;99900.19;5076598;28;1189;-50
2022/09/29 07:58:26;;;;;;;;;;;;;;;29.09;37.27;99884.50;5073405;28;1174;-59
2022/09/29 08:00:54;;;;;;;;;;;;;;;29.21;36.42;99890.84;5061830;28;1370;-59
2022/09/29 08:03:19;;;;;;;;;;;;;;;29.33;36.64;99896.41;5067942;28;1304;-54
2022/09/29 08:05:45;;;;;;;;;;;;;;;29.48;36.27;99884.41;5076206;28;1215;-56
2022/09/29 08:08:10;;;;;;;;;;;;;;;29.35;36.35;99885.34;5076637;28;900;-56
2022/09/29 08:10:35;;;;;;;;;;;;;;;29.40;36.67;99887.41;5075806;28;1958;-58
2022/09/29 08:13:01;;;;;;;;;;;;;;;29.52;36.55;99879.38;5070258;28;1186;-44
2022/09/29 08:15:26;;;;;;;;;;;;;;;29.55;36.41;99881.66;5073505;28;1126;-46
2022/09/29 08:17:52;;;;;;;;;;;;;;;29.41;36.39;99876.34;5064699;28;1307;-52
2022/09/29 08:20:18;;;;;;;;;;;;;;;29.20;36.72;99889.19;5073397;28;1252;-51
2022/09/29 08:22:43;;;;;;;;;;;;;;;29.20;37.05;99889.19;5062697;28;1293;-61
2022/09/29 08:25:08;;;;;;;;;;;;;;;29.09;36.82;99882.59;5073604;28;1211;-58
2022/09/29 08:27:33;;;;;;;;;;;;;;;27.37;36.91;99889.59;5072936;28;965;-59
2022/09/29 08:29:59;;;;;;;;;;;;;;;26.28;36.81;99882.06;5072162;28;1225;-50
2022/09/29 08:32:24;;;;;;;;;;;;;;;26.02;37.96;99887.13;5076050;28;1965;-58
2022/09/29 08:34:50;;;;;;;;;;;;;;;24.56;37.69;99881.66;5075590;28;1271;-54
2022/09/29 08:37:15;;;;;;;;;;;;;;;22.34;40.44;99878.34;5075415;28;1269;-61
2022/09/29 08:39:41;;;;;;;;;;;;;;;21.37;41.80;99875.41;5072601;28;1227;-60
2022/09/29 08:42:26;;;;;;;;;;;;;;;21.16;42.31;99875.88;5073242;28;1143;-61
2022/09/29 08:44:55;;;;;;;;;;;;;;;20.60;42.67;99873.66;5064248;28;1291;-61
2022/09/29 08:47:27;;;;;;;;;;;;;;;20.58;42.90;99878.34;5075859;28;1209;-57
2022/09/29 08:49:52;;;;;;;;;;;;;;;20.57;43.40;99880.16;5075710;28;1103;-61
2022/09/29 08:52:19;;;;;;;;;;;;;;;21.16;43.99;99875.88;5074917;28;1978;-50
2022/09/29 08:54:46;;;;;;;;;;;;;;;22.53;42.66;99878.97;5057513;28;1196;-59
2022/09/29 08:57:16;;;;;;;;;;;;;;;22.66;42.84;99877.59;5076397;28;1162;-59
2022/09/29 08:59:41;;;;;;;;;;;;;;;22.97;44.02;99876.78;5079648;28;1142;-59
2022/09/29 09:02:12;;;;;;;;;;;;;;;23.02;44.45;99869.06;5079410;28;869;-57
2022/09/29 09:04:44;;;;;;;;;;;;;;;22.96;45.02;99870.59;5055422;28;1171;-52
2022/09/29 09:07:09;;;;;;;;;;;;;;;23.08;45.06;99880.91;5079771;28;1142;-61
2022/09/29 09:09:42;;;;;;;;;;;;;;;23.06;45.66;99880.25;5079262;28;1374;-58
2022/09/29 09:12:26;;;;;;;;;;;;;;;22.97;46.17;99871.44;5079246;28;1902;-60
2022/09/29 09:14:55;;;;;;;;;;;;;;;22.92;46.69;99879.16;5073507;28;1223;-55
2022/09/29 09:17:24;;;;;;;;;;;;;;;22.85;47.06;99876.34;5051428;28;1100;-58
2022/09/29 09:20:09;;;;;;;;;;;;;;;22.98;46.91;99862.38;5078598;28;1446;-58
2022/09/29 09:22:52;;;;;;;;;;;;;;;23.01;47.04;99875.41;5079121;28;1112;-59
2022/09/29 09:25:33;;;;;;;;;;;;;;;23.03;47.02;99869.88;5060508;28;1194;-55
2022/09/29 09:28:10;;;;;;;;;;;;;;;22.93;47.28;99864.72;5075776;28;1109;-59
2022/09/29 09:30:55;;;;;;;;;;;;;;;22.81;47.97;99866.97;5057962;28;1985;-59
2022/09/29 09:33:25;;;;;;;;;;;;;;;22.91;47.88;99874.78;5064318;28;1154;-60
2022/09/29 09:35:57;;;;;;;;;;;;;;;22.90;47.89;99875.81;5061220;28;1190;-60
2022/09/29 09:38:24;;;;;;;;;;;;;;;22.70;48.46;99873.56;5061166;28;1182;-60
2022/09/29 09:40:51;;;;;;;;;;;;;;;22.71;48.42;99878.75;5055945;28;1150;-57
2022/09/29 09:43:19;;;;;;;;;;;;;;;22.67;51.32;99880.09;5079162;28;1138;-55
2022/09/29 09:45:47;;;;;;;;;;;;;;;24.64;45.21;99876.19;5078550;28;1075;-57
2022/09/29 09:48:13;;;;;;;;;;;;;;;25.63;43.27;99883.91;5078777;28;1209;-48
2022/09/29 09:50:41;;;;;;;;;;;;;;;26.24;41.76;99886.19;5078672;28;1882;-44
2022/09/29 09:53:21;;;;;;;;;;;;;;;26.70;39.74;99892.91;5071557;28;1155;-46
2022/09/29 09:55:56;;;;;;;;;;;;;;;27.12;39.02;99897.41;5061314;28;1121;-46
2022/09/29 09:58:27;;;;;;;;;;;;;;;27.33;39.56;99896.41;5053196;28;1175;-53
2022/09/29 10:00:57;;;;;;;;;;;;;;;27.61;40.19;99889.19;5069315;28;1107;-52
2022/09/29 10:03:22;;;;;;;;;;;;;;;28.05;39.43;99896.88;5060694;28;1226;-52
2022/09/29 10:05:47;;;;;;;;;;;;;;;28.28;38.93;99899.09;5051021;28;973;-59
2022/09/29 10:08:13;;;;;;;;;;;;;;;28.47;39.04;99899.31;5066680;28;1223;-53
2022/09/29 10:10:39;;;;;;;;;;;;;;;28.61;38.38;99894.69;5074499;28;1890;-50
2022/09/29 10:13:05;;;;;;;;;;;;;;;28.66;38.18;99902.16;5060899;28;1261;-47
2022/09/29 10:15:47;;;;;;;;;;;;;;;28.93;39.02;99892.03;5049200;28;1167;-60
2022/09/29 10:18:17;;;;;;;;;;;;;;;28.99;38.31;99906.63;5045810;28;1152;-46
2022/09/29 10:20:42;;;;;;;;;;;;;;;29.05;38.49;99885.94;5068574;28;1295;-47
2022/09/29 10:23:19;;;;;;;;;;;;;;;29.11;39.08;99892.41;5076812;28;1174;-43
2022/09/29 10:25:52;;;;;;;;;;;;;;;29.05;38.50;99892.22;5077879;28;1237;-46
2022/09/29 10:28:20;;;;;;;;;;;;;;;29.18;38.40;99885.88;5076357;28;1260;-56
2022/09/29 10:30:45;;;;;;;;;;;;;;;29.09;40.48;99884.50;5044965;28;1909;-50
2022/09/29 10:33:17;;;;;;;;;;;;;;;29.28;38.32;99888.09;5058319;28;1227;-48
2022/09/29 10:35:42;;;;;;;;;;;;;;;27.65;42.23;99893.13;5060079;28;1132;-47
2022/09/29 10:38:14;;;;;;;;;;;;;;;26.15;45.15;99889.06;5077439;28;1166;-49
2022/09/29 10:41:00;;;;;;;;;;;;;;;25.40;46.42;99881.38;5050951;28;1107;-51
2022/09/29 10:43:26;;;;;;;;;;;;;;;25.54;45.62;99880.47;5070115;28;1200;-44
2022/09/29 10:45:57;;;;;;;;;;;;;;;26.14;46.39;99873.91;5077538;28;1225;-56
2022/09/29 10:48:22;;;;;;;;;;;;;;;27.49;42.23;99884.38;5077836;28;1134;-46
2022/09/29 10:50:48;;;;;;;;;;;;;;;25.72;45.89;99876.53;5077753;28;1902;-54
2022/09/29 10:53:32;;;;;;;;;;;;;;;24.36;48.89;99867.97;5070129;28;879;-55
2022/09/29 10:55:59;;;;;;;;;;;;;;;23.97;49.95;99865.31;5057814;28;1132;-55
2022/09/29 10:58:24;;;;;;;;;;;;;;;24.17;49.41;99862.94;5063426;28;1019;-56
2022/09/29 11:00:50;;;;;;;;;;;;;;;24.78;51.31;99873.66;5076507;28;1063;-54
2022/09/29 11:03:15;;;;;;;;;;;;;;;26.38;44.62;99862.84;5059318;28;1421;-41
2022/09/29 11:05:48;;;;;;;;;;;;;;;27.56;41.91;99873.56;5067283;28;1204;-42
2022/09/29 11:08:13;;;;;;;;;;;;;;;28.03;41.96;99859.22;5045343;28;1163;-41
2022/09/29 11:10:45;;;;;;;;;;;;;;;28.50;41.57;99861.00;5077195;28;1902;-40
2022/09/29 11:13:25;;;;;;;;;;;;;;;28.83;40.55;99861.88;5077699;28;1158;-42
2022/09/29 11:15:51;;;;;;;;;;;;;;;29.17;39.97;99856.31;5063257;28;1164;-41
2022/09/29 11:18:18;;;;;;;;;;;;;;;29.01;41.11;99853.06;5074722;28;937;-41
2022/09/29 11:20:43;;;;;;;;;;;;;;;29.04;40.42;99846.41;5057146;28;1180;-41
2022/09/29 11:23:11;;;;;;;;;;;;;;;29.37;40.18;99856.16;5057784;28;1072;-57
2022/09/29 11:25:43;;;;;;;;;;;;;;;29.38;40.05;99854.31;5058568;28;1092;-57
2022/09/29 11:28:08;;;;;;;;;;;;;;;29.49;41.89;99853.59;5076391;28;1198;-57
2022/09/29 11:30:42;;;;;;;;;;;;;;;29.89;38.97;99851.59;5062609;28;1906;-62
2022/09/29 11:33:14;;;;;;;;;;;;;;;29.52;40.65;99858.56;5068648;28;1250;-58
2022/09/29 11:35:58;;;;;;;;;;;;;;;29.61;39.20;99858.31;5066072;28;1203;-57
2022/09/29 11:38:36;;;;;;;;;;;;;;;29.46;39.71;99849.41;5066435;28;2146;-52
2022/09/29 11:41:24;;;;;;;;;;;;;;;29.40;39.76;99863.84;5047131;28;1280;-59
2022/09/29 11:43:53;;;;;;;;;;;;;;;29.33;41.59;99853.06;5049584;28;1224;-58
2022/09/29 11:46:22;;;;;;;;;;;;;;;29.16;40.02;99862.78;5065731;28;1135;-58
2022/09/29 11:48:52;;;;;;;;;;;;;;;28.95;42.47;99868.28;5066451;28;1146;-60
2022/09/29 11:51:47;;;;;;;;;;;;;;;29.07;39.97;99873.88;5063638;28;1910;-57
2022/09/29 11:54:27;;;;;;;;;;;;;;;29.13;39.84;99868.63;5012812;28;1191;-58
2022/09/29 11:57:12;;;;;;;;;;;;;;;28.77;41.98;99854.63;5049101;28;1179;-62
2022/09/29 11:59:38;;;;;;;;;;;;;;;28.88;39.83;99863.97;5053511;28;1274;-59
2022/09/29 12:02:17;;;;;;;;;;;;;;;28.98;39.70;99863.53;5063421;28;1278;-56
2022/09/29 12:05:01;;;;;;;;;;;;;;;28.65;42.67;99863.44;5064169;28;1557;-51
2022/09/29 12:07:27;;;;;;;;;;;;;;;28.78;40.58;99867.94;5064865;28;1203;-54
2022/09/29 12:09:57;;;;;;;;;;;;;;;28.62;40.62;99880.09;5064222;28;1016;-52
2022/09/29 12:12:25;;;;;;;;;;;;;;;28.49;43.42;99881.00;5047632;28;1966;-54
2022/09/29 12:14:57;;;;;;;;;;;;;;;29.01;39.96;99876.63;5066493;28;1191;-63
2022/09/29 12:17:23;;;;;;;;;;;;;;;28.70;40.70;99862.78;5063225;28;1238;-57
2022/09/29 12:19:50;;;;;;;;;;;;;;;28.58;43.32;99859.91;5048895;28;1270;-56
2022/09/29 12:22:18;;;;;;;;;;;;;;;28.82;39.49;99868.34;5049255;28;1240;-58
2022/09/29 12:24:45;;;;;;;;;;;;;;;28.76;42.16;99861.91;5049715;28;1206;-57
2022/09/29 12:27:18;;;;;;;;;;;;;;;29.20;39.48;99855.88;5072913;28;1287;-58
2022/09/29 12:29:44;;;;;;;;;;;;;;;28.97;40.01;99865.38;5070761;28;1123;-53
2022/09/29 12:32:18;;;;;;;;;;;;;;;28.78;42.98;99865.25;5069744;28;1926;-55
2022/09/29 12:34:43;;;;;;;;;;;;;;;29.29;40.06;99859.16;5063121;28;1104;-60
2022/09/29 12:37:11;;;;;;;;;;;;;;;29.18;40.36;99874.19;5071622;28;1448;-62
2022/09/29 12:39:39;;;;;;;;;;;;;;;28.96;42.26;99863.72;5075464;28;1211;-62
2022/09/29 12:42:12;;;;;;;;;;;;;;;28.50;36.99;99855.59;5068425;28;1138;-57
2022/09/29 12:44:39;;;;;;;;;;;;;;;28.35;37.02;99855.84;5073996;28;1179;-57
2022/09/29 12:47:28;;;;;;;;;;;;;;;28.30;34.23;99870.00;5057869;28;1198;-59
2022/09/29 12:50:10;;;;;;;;;;;;;;;28.18;34.07;99860.84;5038139;28;1335;-57
2022/09/29 12:52:52;;;;;;;;;;;;;;;28.12;35.06;99867.97;5057584;28;1957;-55
2022/09/29 12:55:24;;;;;;;;;;;;;;;28.23;36.11;99856.47;5048543;28;1032;-54
2022/09/29 12:57:49;;;;;;;;;;;;;;;26.63;39.11;99862.34;5076052;28;1119;-53
2022/09/29 13:00:15;;;;;;;;;;;;;;;26.99;35.83;99865.81;5075717;28;1165;-43
2022/09/29 13:03:00;;;;;;;;;;;;;;;27.59;32.89;99859.66;5075882;28;1103;-48
2022/09/29 13:06:01;;;;;;;;;;;;;;;25.48;45.13;99861.56;5062035;28;1132;-46